Portada
METAR-TAF:

METAR-TAF

Aeroports :

Hōfu, Japó

latitud: 34-02N, longitud: 131-33E, altitud: 2 m

Observació

L'informe es va fer fa 39 minuts, a les 00:12 UTC
Vent 2 kt amb direcció variable
Temperatura 10°C
Humitat 82%
Pressió 1019 hPa
Visibilitat 10 km o més
Escasses núvols a una alçada de 600 ft
Núvols disperses a una alçada de 25000 ft

METAR: RJOF 200012Z VRB02KT 9999 FEW006 SCT250 10/07 Q1019 RMK 1ST006 A3010

Hora: 09:51 (00:51 UTC)


TAF: manca

Observacions i pronòstics meteorològics de més de 4000 aeroports (METAR i TAF).

Les estacions disponibles són els punts grocs i vermells al mapa.

Posi el ratolí al punt desitjat per veure el nom de l'estació.

Feu clic per veure les observacions i els pronòstics meteorològics.

Per canviar el mapa: feu clic els botons verds amb una creu de color negre per apropar; al botó verd amb un guió per allunyar la imatge; o en les fletxes verdes per a mapes adjacents.


METAR-TAF: